Flight Track Log - Related Links

Times and Time Zones

All times are in EDT time to prevent confusion due to time zone crossing. See the ASQ6029 flight status page for this flight to view local times or setup timezone preferences in your user account.

Time Position Orientation Groundspeed Altitude Reporting Facility
EDT Latitude Longitude Course Direction KTS MPH feet Rate Location/Type
Fri 01:31:44 PM 35.3953 -101.7764 339° North 255 293 10,500  Level Albuquerque Center
Fri 01:32:00 PM 35.5635 -101.8427 336° Northwest  Level FlightAware Approximate
Fri 01:32:46 PM 35.4750 -101.8131 339° North 301 346 11,400  Level Albuquerque Center
Fri 01:33:00 PM 35.6496 -101.8905 336° Northwest  Level FlightAware Approximate
Fri 01:33:48 PM 35.5803 -101.8608 340° North 334 384 13,700  Level Albuquerque Center
Fri 01:34:00 PM 35.7398 -101.9244 345° North  Level FlightAware Approximate
Fri 01:34:50 PM 35.6672 -101.9011 339° North 333 383 15,500  Level Albuquerque Center
Fri 01:35:00 PM 35.8327 -101.9663 338° Northwest  Level FlightAware Approximate
Fri 01:35:52 PM 35.7564 -101.9425 339° North 339 390 16,700  Level Albuquerque Center
Fri 01:36:00 PM 35.9213 -102.0188 340° North  Level FlightAware Approximate
Fri 01:36:54 PM 35.8492 -101.9864 339° North 352 405 17,900  Level Albuquerque Center
Fri 01:37:56 PM 35.9417 -102.0283 340° North 355 409 20,300 1,887 Climbing Albuquerque Center
Fri 01:38:58 PM 36.0253 -102.0675 339° North 331 381 21,800 1,536 Climbing Albuquerque Center
Fri 01:40:01 PM 36.1292 -102.1169 339° North 332 382 23,500 1,584 Climbing Albuquerque Center
Fri 01:41:03 PM 36.2172 -102.1586 339° North 337 388 25,100 1,548 Climbing Albuquerque Center
Fri 01:42:05 PM 36.3025 -102.1986 339° North 331 381 26,700 1,403 Climbing Albuquerque Center
Fri 01:43:07 PM 36.3881 -102.2389 339° North 329 379 28,000 629 Climbing Albuquerque Center
Fri 01:44:09 PM 36.4814 -102.2822 340° North 350 403 28,000  Level Albuquerque Center
Fri 01:45:11 PM 36.5836 -102.3311 339° North 385 443 28,000  Level Albuquerque Center
Fri 01:46:13 PM 36.7119 -102.3922 339° North 408 470 28,000  Level Albuquerque Center
Fri 01:47:15 PM 36.8194 -102.4431 339° North 413 475 28,000  Level Albuquerque Center
Fri 01:48:17 PM 36.9356 -102.4978 339° North 420 483 28,000  Level Albuquerque Center
Fri 01:49:19 PM 37.0381 -102.5483 339° North 421 484 28,000  Level Albuquerque Center
Fri 01:50:21 PM 37.1589 -102.6061 339° North 418 481 28,000  Level Albuquerque Center
Fri 01:51:23 PM 37.2636 -102.6561 339° North 420 483 28,000  Level Albuquerque Center
Fri 01:52:25 PM 37.3883 -102.7014 344° North 420 483 28,000  Level Albuquerque Center
Fri 01:53:22 PM 37.4992 -102.7239 351° North 425 489 28,000  Level Denver Center
Fri 01:54:24 PM 37.6097 -102.7475 350° North 423 487 28,000  Level Denver Center
Fri 01:55:26 PM 37.7378 -102.7750 350° North 419 482 28,000  Level Denver Center
Fri 01:56:28 PM 37.8486 -102.7981 351° North 422 486 28,000  Level Denver Center
Fri 01:57:30 PM 37.9769 -102.8250 351° North 418 481 28,000  Level Denver Center
Fri 01:58:32 PM 38.0933 -102.8503 350° North 418 481 28,000  Level Denver Center
Fri 01:59:34 PM 38.1956 -102.8989 340° North 412 474 28,000  Level Denver Center
Fri 02:00:36 PM 38.2989 -102.9878 326° Northwest 403 464 28,000  Level Denver Center
Fri 02:01:38 PM 38.3886 -103.0636 326° Northwest 405 466 28,000  Level Denver Center
Fri 02:02:40 PM 38.4928 -103.1542 326° Northwest 404 465 28,000  Level Denver Center
Fri 02:03:43 PM 38.5897 -103.2364 326° Northwest 408 470 28,000  Level Denver Center
Fri 02:04:45 PM 38.6825 -103.3172 326° Northwest 407 468 28,000  Level Denver Center
Fri 02:05:47 PM 38.7767 -103.3975 326° Northwest 407 468 28,000  Level Denver Center
Fri 02:06:49 PM 38.8703 -103.4789 326° Northwest 407 468 28,000  Level Denver Center
Fri 02:07:51 PM 38.9639 -103.5597 326° Northwest 408 470 28,000  Level Denver Center
Fri 02:08:53 PM 39.0772 -103.6572 326° Northwest 409 471 28,000 -532 Level Denver Center
Fri 02:09:55 PM 39.1694 -103.7389 326° Northwest 406 467 26,900 -1,403 Descending Denver Center
Fri 02:10:57 PM 39.2539 -103.8131 326° Northwest 365 420 25,100 -1,742 Descending Denver Center
Fri 02:11:59 PM 39.3308 -103.8800 326° Northwest 337 388 23,300 -1,887 Descending Denver Center
Fri 02:13:01 PM 39.4136 -103.9708 320° Northwest 375 432 21,200 -2,032 Descending Denver Center
Fri 02:14:03 PM 39.4819 -104.0825 308° West 399 459 19,100 -1,935 Descending Denver Center
Fri 02:15:05 PM 39.5511 -104.2042 306° West 383 441 17,200 -1,984 Descending Denver Center
Fri 02:16:07 PM 39.6139 -104.3131 307° West 376 433 15,000 -1,887 Descending Denver Center
Fri 02:17:09 PM 39.6803 -104.4311 306° West 378 435 13,300 -1,296 Descending Denver Center
Fri 02:18:12 PM 39.7439 -104.5417 307° West 381 438 12,300 -1,056 Descending Denver Center
Fri 02:19:14 PM 39.7508 -104.6731 274° West 358 412 11,100 -1,059 Descending Denver Center
Fri 02:20:28 PM 39.7531 -104.8014 271° West 278 320 9,900 -973 Descending Denver Center

Login

Don't have an account? Register now (free) for customized features, flight alerts, and more!